NCAR-RAP Real-Time Weather Data

Output produced by METARs form (08 May 2021  17:07 UTC)
found at http://weather.rap.ucar.edu/surface/
 
KSFO 081556Z 00000KT 10SM CLR 17/07 A3005 RMK AO2 SLP176 T01720072
KSFO 081456Z 00000KT 10SM FEW200 14/08 A3005 RMK AO2 SLP175 T01390078 53010
KSFO 081356Z 26003KT 10SM FEW200 11/06 A3004 RMK AO2 SLP171 T01110061
KSFO 081256Z 28005KT 10SM FEW200 11/06 A3002 RMK AO2 SLP166 T01060056
KSFO 081156Z 25005KT 10SM CLR 11/06 A3002 RMK AO2 SLP165 T01060061 10122 20106 58001
KSFO 081056Z 29006KT 10SM CLR 11/07 A3002 RMK AO2 SLP167 T01110067
KSFO 080956Z 28006KT 9SM CLR 11/07 A3002 RMK AO2 SLP165 T01110067
KSFO 080856Z 30007KT 9SM CLR 12/07 A3002 RMK AO2 SLP166 T01170072 56006
KSFO 080756Z 30013KT 9SM CLR 12/07 A3003 RMK AO2 SLP169 T01220072 401890111
KSFO 080656Z 26007KT 9SM CLR 12/07 A3002 RMK AO2 SLP166 T01220067
KSFO 080556Z 29010KT 9SM CLR 12/07 A3004 RMK AO2 SLP172 T01220072 10167 20122 51009
KSFO 080456Z 29016KT 9SM CLR 13/07 A3004 RMK AO2 SLP172 T01280067
KSFO 080356Z 27018KT 9SM FEW200 13/07 A3003 RMK AO2 SLP167 T01280067
KSFO 080256Z 27017KT 10SM FEW200 13/07 A3001 RMK AO2 PK WND 28027/0241 SLP163 T01330067 56004
KSFO 080156Z 27020KT 10SM CLR 15/06 A3001 RMK AO2 PK WND 28031/0059 SLP163 T01500061
KSFO 080056Z 28025G29KT 10SM CLR 16/06 A3002 RMK AO2 PK WND 27029/0055 SLP165 T01610061
KSFO 072356Z 26022KT 10SM CLR 17/06 A3003 RMK AO2 PK WND 28031/2311 SLP167 T01670061 10189 20167 56015
KSFO 072256Z 28023G29KT 10SM CLR 17/06 A3004 RMK AO2 PK WND 27030/2251 SLP171 T01720061
KSFO 072156Z 28020KT 10SM CLR 18/06 A3006 RMK AO2 PK WND 28027/2149 SLP177 T01780061
KSFO 072056Z 28020KT 10SM CLR 18/07 A3007 RMK AO2 SLP182 T01830067 58002
KSFO 071956Z 28018G23KT 9SM FEW009 18/06 A3008 RMK AO2 SLP185 T01780061
KSFO 071856Z 28015KT 10SM FEW009 17/07 A3008 RMK AO2 SLP186 T01720067
KSFO 071756Z 27010KT 9SM FEW009 16/07 A3008 RMK AO2 SLP184 T01610067 10167 20111 51004
KSFO 071656Z 29012KT 9SM FEW009 16/07 A3007 RMK AO2 SLP183 T01560067
KSFO 071556Z 29009KT 9SM FEW009 14/07 A3007 RMK AO2 SLP182 T01440072
KSFO 071456Z 26011KT 9SM FEW009 13/07 A3006 RMK AO2 SLP179 T01280072 51013
KSFO 071356Z 28012KT 10SM FEW009 11/07 A3005 RMK AO2 SLP175 T01110072
KSFO 071256Z 28017KT 10SM FEW008 FEW014 11/07 A3004 RMK AO2 PK WND 29027/1241 SLP173 T01110072
KSFO 071156Z 29019G25KT 10SM FEW008 FEW014 11/07 A3002 RMK AO2 PK WND 28033/1057 SLP166 T01110072 10122 20111 55008
KSFO 071056Z 28026G33KT 10SM FEW008 FEW014 12/07 A3002 RMK AO2 PK WND 28037/1034 SLP165 T01170072
KSFO 070956Z 28021G27KT 10SM FEW009 FEW015 12/08 A3004 RMK AO2 PK WND 28027/0947 SLP171 T01170078
KSFO 070948Z 28021G27KT 10SM SCT009 12/08 A3004 RMK AO2 PK WND 28027/0947 T01170078
KSFO 070856Z 28018KT 10SM BKN009 12/08 A3005 RMK AO2 PK WND 27031/0802 SLP174 T01170083 56012
KSFO 070830Z 28022G27KT 10SM BKN009 12/08 A3005 RMK AO2 PK WND 27031/0802 T01170083
KSFO 070756Z 27027G34KT 10SM FEW007 FEW010 SCT200 12/08 A3005 RMK AO2 PK WND 27034/0751 SLP176 T01170083 401780100
KSFO 070710Z 27024G33KT 10SM FEW007 SCT010 12/08 A3005 RMK AO2 PK WND 28033/0703 T01170083
KSFO 070656Z 27026G31KT 10SM FEW007 BKN010 12/08 A3006 RMK AO2 PK WND 27031/0656 SLP178 T01170083
KSFO 070648Z 27023KT 10SM FEW007 BKN010 12/08 A3006 RMK AO2 PK WND 27028/0639 T01220083
KSFO 070556Z 27016KT 10SM FEW007 FEW015 12/08 A3008 RMK AO2 SLP186 T01220083 10156 20122 51006
KSFO 070456Z 26018KT 10SM FEW004 13/08 A3008 RMK AO2 PK WND 27031/0402 SLP185 T01280078
KSFO 070356Z 27024KT 10SM FEW004 FEW200 13/09 A3007 RMK AO2 PK WND 26033/0307 SLP182 T01280089
KSFO 070256Z 27025KT 10SM SCT005 SCT200 13/09 A3006 RMK AO2 PK WND 26031/0244 SLP180 T01280094 56003
KSFO 070156Z 27021KT 10SM FEW002 BKN008 13/09 A3007 RMK AO2 PK WND 27028/0146 SLP182 T01330094
KSFO 070056Z 29014KT 10SM FEW003 BKN010 BKN200 14/10 A3007 RMK AO2 SLP181 T01440100
KSFO 062356Z 27019G29KT 10SM FEW003 BKN008 15/10 A3007 RMK AO2 PK WND 30029/2348 SLP183 T01500100 10178 20139 58003
KSFO 062336Z 28021G26KT 10SM FEW003 BKN008 15/11 A3007 RMK AO2 PK WND 28027/2310 T01500106
KSFO 062256Z 28020G29KT 10SM FEW003 BKN010 BKN200 16/10 A3008 RMK AO2 PK WND 29029/2254 SLP186 T01610100
KSFO 062156Z 29013G21KT 10SM FEW004 BKN014 BKN200 16/09 A3009 RMK AO2 SLP187 T01610094
KSFO 062056Z 28018G25KT 10SM FEW009 SCT013 SCT200 16/09 A3008 RMK AO2 SLP186 T01610094 58002
KSFO 061956Z 28011KT 10SM FEW009 FEW030 16/09 A3009 RMK AO2 SLP189 T01610089
KSFO 061856Z 27013KT 10SM FEW009 FEW012 SCT200 16/08 A3010 RMK AO2 SLP191 T01560083
KSFO 061756Z 27019KT 10SM FEW009 FEW012 SCT200 14/07 A3009 RMK AO2 SLP188 T01390072 10144 20100 53004